HEBA/HBE METAR and TAF weather

Enter ICAO airport designator
Station Type Date Time Source
HEBA METAR 2022/12/05 14:00 UTC NOAA

HEBA 051400Z 32009KT 9999 SCT020 20/10 Q1020 NOSIG


Station Type Date Time Source
HEBA Decoded METAR 2022/12/05 14:00 UTC NOAA

Alexandria Borg El Arab, Egypt (HEBA) 31-31N 030-10E
Dec 05, 2022 - 09:00 AM EST / 2022.12.05 1400 UTC
Wind: from the NW (320 degrees) at 10 MPH (9 KT):0
Visibility: greater than 7 mile(s):0
Sky conditions: partly cloudy
Temperature: 68 F (20 C)
Dew Point: 50 F (10 C)
Relative Humidity: 52%
Pressure (altimeter): 30.12 in. Hg (1020 hPa)
ob: HEBA 051400Z 32009KT 9999 SCT020 20/10 Q1020 NOSIG
cycle: 14

Station Type Date Time Source
HEBA TAF 2022/12/05 12:51 UTC NOAA

TAF HEBA 051100Z 0512/0618 32011KT 9999 SCT020
TEMPO 0604/0616 8000 RA BKN020

Example: see airport list